Ana Sayfa
METAR-TAF:

METAR-TAF

Havaalanları :

Kahire Uluslararası Havalimanı

Kahire, Mısır

Enlem: 30-08N, Boylam: 031-24E, yükseklik: 64 m

Güncel hava durumu gözlemi

Rapor saat 22:30 UTC de 12 dakika önce yapıldı.
Rüzgar kuzeydoğudan 9 kt
Sıcaklık 24°C
Nem 54%
Basınç 1016 hPa
Görüş mesafesi 10 km veya daha fazla
1500 m altında bulut yok ve kümülonimbus yok

METAR: HECA 202230Z 05009KT CAVOK 24/14 Q1016 NOSIG

Saat: 00:42 (22:42 UTC)

Tahmin

Rapor saat 17:00 UTC de 5 saat ve 42 dakika önce yapıldı.
Ayın 20'si saat 18 UTC'den ayın 21'si saat 24 UTC'ye kadar geçerli Tahmin
Rüzgar kuzeydan 12 kt
Görüş mesafesi 10 km veya daha fazla
1500 m altında bulut yok ve kümülonimbus yok

TAF: HECA 201700Z 2018/2124 01012KT CAVOK

4.000'den fazla havaalanı için hava durumu gözlemleri ve tahminleri (METAR ve TAF raporları).

Kullanılabilir istasyonlar harita üzerinde sarı ve kırmızı noktalarla gösterilir.

İstasyonun adını görmek için fareyi noktanın üzerinde gezdirin.

Sonrasında hava gözlem ve tahminlerini görmek için tıklayın.

Haritayı değiştirmek için: yaklaştırmak için siyah artı işaretli yeşil düğmeye ve uzaklaştırmak için de eksi işaretli düğmeye hızla tıklayın; bitişik haritalar için yeşil okları kullanın.


METAR-TAF: